sensor_id;sensor_type;location;lat;lon;timestamp;temperature;humidity
2621;DHT22;1320;48.128;11.592;2023-11-19T00:00:27;6.50;99.90
2621;DHT22;1320;48.128;11.592;2023-11-19T00:02:53;6.50;99.90
2621;DHT22;1320;48.128;11.592;2023-11-19T00:05:19;6.60;99.90
2621;DHT22;1320;48.128;11.592;2023-11-19T00:07:44;6.60;99.90
2621;DHT22;1320;48.128;11.592;2023-11-19T00:10:11;6.60;99.90
2621;DHT22;1320;48.128;11.592;2023-11-19T00:12:39;6.70;99.90
2621;DHT22;1320;48.128;11.592;2023-11-19T00:15:06;6.70;99.90
2621;DHT22;1320;48.128;11.592;2023-11-19T00:17:32;6.70;99.90
2621;DHT22;1320;48.128;11.592;2023-11-19T00:19:58;6.70;99.90
2621;DHT22;1320;48.128;11.592;2023-11-19T00:22:23;6.70;99.90
2621;DHT22;1320;48.128;11.592;2023-11-19T00:24:51;6.70;99.90
2621;DHT22;1320;48.128;11.592;2023-11-19T00:27:16;6.70;99.90
2621;DHT22;1320;48.128;11.592;2023-11-19T00:29:43;6.70;99.90
2621;DHT22;1320;48.128;11.592;2023-11-19T00:32:11;6.70;99.90
2621;DHT22;1320;48.128;11.592;2023-11-19T00:34:37;6.80;99.90
2621;DHT22;1320;48.128;11.592;2023-11-19T00:37:02;6.80;99.90
2621;DHT22;1320;48.128;11.592;2023-11-19T00:39:29;6.90;99.90
2621;DHT22;1320;48.128;11.592;2023-11-19T00:41:54;6.90;99.90
2621;DHT22;1320;48.128;11.592;2023-11-19T00:44:20;7.00;99.90
2621;DHT22;1320;48.128;11.592;2023-11-19T00:46:47;7.00;99.90
2621;DHT22;1320;48.128;11.592;2023-11-19T00:49:12;7.00;99.90
2621;DHT22;1320;48.128;11.592;2023-11-19T00:51:38;7.00;99.90
2621;DHT22;1320;48.128;11.592;2023-11-19T00:54:04;7.10;99.90
2621;DHT22;1320;48.128;11.592;2023-11-19T00:56:29;7.00;99.90
2621;DHT22;1320;48.128;11.592;2023-11-19T00:58:55;7.10;99.90
2621;DHT22;1320;48.128;11.592;2023-11-19T01:01:21;7.10;99.90
2621;DHT22;1320;48.128;11.592;2023-11-19T01:03:53;7.10;99.90
2621;DHT22;1320;48.128;11.592;2023-11-19T01:06:28;7.20;99.90
2621;DHT22;1320;48.128;11.592;2023-11-19T01:08:55;7.20;99.90
2621;DHT22;1320;48.128;11.592;2023-11-19T01:11:22;7.20;99.90
2621;DHT22;1320;48.128;11.592;2023-11-19T01:13:49;7.20;99.90
2621;DHT22;1320;48.128;11.592;2023-11-19T01:16:15;7.20;99.90
2621;DHT22;1320;48.128;11.592;2023-11-19T01:18:40;7.20;99.90
2621;DHT22;1320;48.128;11.592;2023-11-19T01:21:06;7.30;99.90
2621;DHT22;1320;48.128;11.592;2023-11-19T01:23:32;7.30;99.90
2621;DHT22;1320;48.128;11.592;2023-11-19T01:26:00;7.30;99.90
2621;DHT22;1320;48.128;11.592;2023-11-19T01:28:26;7.30;99.90
2621;DHT22;1320;48.128;11.592;2023-11-19T01:30:52;7.40;99.90
2621;DHT22;1320;48.128;11.592;2023-11-19T01:33:18;7.40;99.90
2621;DHT22;1320;48.128;11.592;2023-11-19T01:35:43;7.40;99.90
2621;DHT22;1320;48.128;11.592;2023-11-19T01:38:09;7.50;99.90
2621;DHT22;1320;48.128;11.592;2023-11-19T01:40:35;7.50;99.90
2621;DHT22;1320;48.128;11.592;2023-11-19T01:43:02;7.50;99.90
2621;DHT22;1320;48.128;11.592;2023-11-19T01:45:29;7.50;99.90
2621;DHT22;1320;48.128;11.592;2023-11-19T01:47:56;7.50;99.90
2621;DHT22;1320;48.128;11.592;2023-11-19T01:50:23;7.50;99.90
2621;DHT22;1320;48.128;11.592;2023-11-19T01:52:54;7.50;99.90
2621;DHT22;1320;48.128;11.592;2023-11-19T01:55:20;7.60;99.90
2621;DHT22;1320;48.128;11.592;2023-11-19T01:57:48;7.60;99.90
2621;DHT22;1320;48.128;11.592;2023-11-19T02:00:15;7.60;99.90
2621;DHT22;1320;48.128;11.592;2023-11-19T02:02:42;7.70;99.90
2621;DHT22;1320;48.128;11.592;2023-11-19T02:05:10;7.70;99.90
2621;DHT22;1320;48.128;11.592;2023-11-19T02:07:36;7.80;99.90
2621;DHT22;1320;48.128;11.592;2023-11-19T02:10:02;7.80;99.90
2621;DHT22;1320;48.128;11.592;2023-11-19T02:12:33;7.90;99.90
2621;DHT22;1320;48.128;11.592;2023-11-19T02:15:03;7.90;99.90
2621;DHT22;1320;48.128;11.592;2023-11-19T02:17:32;7.90;99.90
2621;DHT22;1320;48.128;11.592;2023-11-19T02:19:58;8.00;99.90
2621;DHT22;1320;48.128;11.592;2023-11-19T02:24:57;8.10;99.90
2621;DHT22;1320;48.128;11.592;2023-11-19T02:30:17;8.20;99.90
2621;DHT22;1320;48.128;11.592;2023-11-19T02:35:08;8.30;99.90
2621;DHT22;1320;48.128;11.592;2023-11-19T02:37:34;8.40;99.90
2621;DHT22;1320;48.128;11.592;2023-11-19T02:40:00;8.50;99.90
2621;DHT22;1320;48.128;11.592;2023-11-19T02:42:28;8.60;99.90
2621;DHT22;1320;48.128;11.592;2023-11-19T02:44:54;8.70;99.90
2621;DHT22;1320;48.128;11.592;2023-11-19T02:47:20;8.80;99.90
2621;DHT22;1320;48.128;11.592;2023-11-19T02:49:47;8.80;99.90
2621;DHT22;1320;48.128;11.592;2023-11-19T02:52:13;8.90;99.90
2621;DHT22;1320;48.128;11.592;2023-11-19T02:54:40;9.00;99.90
2621;DHT22;1320;48.128;11.592;2023-11-19T02:57:06;9.10;99.90
2621;DHT22;1320;48.128;11.592;2023-11-19T02:59:37;9.10;99.90
2621;DHT22;1320;48.128;11.592;2023-11-19T03:02:07;9.20;99.90
2621;DHT22;1320;48.128;11.592;2023-11-19T03:04:37;9.30;99.90
2621;DHT22;1320;48.128;11.592;2023-11-19T03:07:08;9.30;99.90
2621;DHT22;1320;48.128;11.592;2023-11-19T03:09:33;9.30;99.90
2621;DHT22;1320;48.128;11.592;2023-11-19T03:12:01;9.40;99.90
2621;DHT22;1320;48.128;11.592;2023-11-19T03:14:27;9.40;99.90
2621;DHT22;1320;48.128;11.592;2023-11-19T03:16:53;9.50;99.90
2621;DHT22;1320;48.128;11.592;2023-11-19T03:19:18;9.50;99.90
2621;DHT22;1320;48.128;11.592;2023-11-19T03:21:44;9.50;99.90
2621;DHT22;1320;48.128;11.592;2023-11-19T03:24:12;9.50;99.90
2621;DHT22;1320;48.128;11.592;2023-11-19T03:26:38;9.50;99.90
2621;DHT22;1320;48.128;11.592;2023-11-19T03:29:04;9.60;99.90
2621;DHT22;1320;48.128;11.592;2023-11-19T03:31:30;9.60;99.90
2621;DHT22;1320;48.128;11.592;2023-11-19T03:33:55;9.60;99.90
2621;DHT22;1320;48.128;11.592;2023-11-19T03:36:21;9.70;99.90
2621;DHT22;1320;48.128;11.592;2023-11-19T03:38:47;9.70;99.90
2621;DHT22;1320;48.128;11.592;2023-11-19T03:41:14;9.70;99.90
2621;DHT22;1320;48.128;11.592;2023-11-19T03:43:40;9.80;99.90
2621;DHT22;1320;48.128;11.592;2023-11-19T03:46:21;9.80;99.90
2621;DHT22;1320;48.128;11.592;2023-11-19T03:48:48;9.90;99.90
2621;DHT22;1320;48.128;11.592;2023-11-19T03:51:14;9.90;99.90
2621;DHT22;1320;48.128;11.592;2023-11-19T03:53:45;10.00;99.90
2621;DHT22;1320;48.128;11.592;2023-11-19T03:56:12;10.00;99.90
2621;DHT22;1320;48.128;11.592;2023-11-19T03:58:38;10.00;99.90
2621;DHT22;1320;48.128;11.592;2023-11-19T04:01:05;10.10;99.90
2621;DHT22;1320;48.128;11.592;2023-11-19T04:03:30;10.10;99.90
2621;DHT22;1320;48.128;11.592;2023-11-19T04:05:56;10.10;99.90
2621;DHT22;1320;48.128;11.592;2023-11-19T04:08:22;10.10;99.90
2621;DHT22;1320;48.128;11.592;2023-11-19T04:10:48;10.10;99.90
2621;DHT22;1320;48.128;11.592;2023-11-19T04:13:13;10.20;99.90
2621;DHT22;1320;48.128;11.592;2023-11-19T04:15:39;10.30;99.90
2621;DHT22;1320;48.128;11.592;2023-11-19T04:18:05;10.30;99.90
2621;DHT22;1320;48.128;11.592;2023-11-19T04:20:31;10.30;99.90
2621;DHT22;1320;48.128;11.592;2023-11-19T04:22:57;10.40;99.90
2621;DHT22;1320;48.128;11.592;2023-11-19T04:25:23;10.40;99.90
2621;DHT22;1320;48.128;11.592;2023-11-19T04:27:51;10.50;99.90
2621;DHT22;1320;48.128;11.592;2023-11-19T04:30:17;10.50;99.90
2621;DHT22;1320;48.128;11.592;2023-11-19T04:32:43;10.50;99.90
2621;DHT22;1320;48.128;11.592;2023-11-19T04:35:09;10.60;99.90
2621;DHT22;1320;48.128;11.592;2023-11-19T04:37:36;10.60;99.90
2621;DHT22;1320;48.128;11.592;2023-11-19T04:40:02;10.60;99.90
2621;DHT22;1320;48.128;11.592;2023-11-19T04:42:28;10.60;99.90
2621;DHT22;1320;48.128;11.592;2023-11-19T04:44:55;10.70;99.90
2621;DHT22;1320;48.128;11.592;2023-11-19T04:47:20;10.70;99.90
2621;DHT22;1320;48.128;11.592;2023-11-19T04:49:46;10.70;99.90
2621;DHT22;1320;48.128;11.592;2023-11-19T04:52:12;10.70;99.90
2621;DHT22;1320;48.128;11.592;2023-11-19T04:54:43;10.80;99.90
2621;DHT22;1320;48.128;11.592;2023-11-19T04:57:09;10.90;99.90
2621;DHT22;1320;48.128;11.592;2023-11-19T04:59:38;10.90;99.90
2621;DHT22;1320;48.128;11.592;2023-11-19T05:02:04;11.00;99.90
2621;DHT22;1320;48.128;11.592;2023-11-19T05:04:30;11.10;99.90
2621;DHT22;1320;48.128;11.592;2023-11-19T05:06:56;11.10;99.90
2621;DHT22;1320;48.128;11.592;2023-11-19T05:09:22;11.10;99.90
2621;DHT22;1320;48.128;11.592;2023-11-19T05:11:47;11.20;99.90
2621;DHT22;1320;48.128;11.592;2023-11-19T05:14:14;11.30;99.90
2621;DHT22;1320;48.128;11.592;2023-11-19T05:16:40;11.30;99.90
2621;DHT22;1320;48.128;11.592;2023-11-19T05:19:06;11.30;99.90
2621;DHT22;1320;48.128;11.592;2023-11-19T05:21:32;11.40;99.90
2621;DHT22;1320;48.128;11.592;2023-11-19T05:23:57;11.40;99.90
2621;DHT22;1320;48.128;11.592;2023-11-19T05:26:23;11.40;99.90
2621;DHT22;1320;48.128;11.592;2023-11-19T05:28:50;11.40;99.90
2621;DHT22;1320;48.128;11.592;2023-11-19T05:31:17;11.50;99.90
2621;DHT22;1320;48.128;11.592;2023-11-19T05:33:43;11.50;99.90
2621;DHT22;1320;48.128;11.592;2023-11-19T05:36:11;11.50;99.90
2621;DHT22;1320;48.128;11.592;2023-11-19T05:38:37;11.50;99.90
2621;DHT22;1320;48.128;11.592;2023-11-19T05:41:03;11.50;99.90
2621;DHT22;1320;48.128;11.592;2023-11-19T05:43:28;11.50;99.90
2621;DHT22;1320;48.128;11.592;2023-11-19T05:45:54;11.50;99.90
2621;DHT22;1320;48.128;11.592;2023-11-19T05:48:20;11.50;99.90
2621;DHT22;1320;48.128;11.592;2023-11-19T05:50:45;11.50;99.90
2621;DHT22;1320;48.128;11.592;2023-11-19T05:53:11;11.50;99.90
2621;DHT22;1320;48.128;11.592;2023-11-19T05:55:40;11.50;99.90
2621;DHT22;1320;48.128;11.592;2023-11-19T05:58:13;11.60;99.90
2621;DHT22;1320;48.128;11.592;2023-11-19T06:00:39;11.60;99.90
2621;DHT22;1320;48.128;11.592;2023-11-19T06:03:07;11.60;99.90
2621;DHT22;1320;48.128;11.592;2023-11-19T06:05:32;11.70;99.90
2621;DHT22;1320;48.128;11.592;2023-11-19T06:07:58;11.60;99.90
2621;DHT22;1320;48.128;11.592;2023-11-19T06:10:24;11.60;99.90
2621;DHT22;1320;48.128;11.592;2023-11-19T06:13:00;11.60;99.90
2621;DHT22;1320;48.128;11.592;2023-11-19T06:15:30;11.60;99.90
2621;DHT22;1320;48.128;11.592;2023-11-19T06:17:56;11.60;99.90
2621;DHT22;1320;48.128;11.592;2023-11-19T06:20:23;11.60;99.90
2621;DHT22;1320;48.128;11.592;2023-11-19T06:22:49;11.60;99.90
2621;DHT22;1320;48.128;11.592;2023-11-19T06:25:15;11.60;99.90
2621;DHT22;1320;48.128;11.592;2023-11-19T06:27:42;11.60;99.90
2621;DHT22;1320;48.128;11.592;2023-11-19T06:30:08;11.60;99.90
2621;DHT22;1320;48.128;11.592;2023-11-19T06:32:34;11.70;99.90
2621;DHT22;1320;48.128;11.592;2023-11-19T06:34:59;11.70;99.90
2621;DHT22;1320;48.128;11.592;2023-11-19T06:37:25;11.70;99.90
2621;DHT22;1320;48.128;11.592;2023-11-19T06:39:52;11.70;99.90
2621;DHT22;1320;48.128;11.592;2023-11-19T06:42:18;11.70;99.90
2621;DHT22;1320;48.128;11.592;2023-11-19T06:44:43;11.80;99.90
2621;DHT22;1320;48.128;11.592;2023-11-19T06:47:09;11.80;99.90
2621;DHT22;1320;48.128;11.592;2023-11-19T06:49:35;11.80;99.90
2621;DHT22;1320;48.128;11.592;2023-11-19T06:52:00;11.80;99.90
2621;DHT22;1320;48.128;11.592;2023-11-19T06:54:26;11.90;99.90
2621;DHT22;1320;48.128;11.592;2023-11-19T06:56:52;11.90;99.90
2621;DHT22;1320;48.128;11.592;2023-11-19T06:59:17;11.90;99.90
2621;DHT22;1320;48.128;11.592;2023-11-19T07:01:46;12.00;99.90
2621;DHT22;1320;48.128;11.592;2023-11-19T07:04:11;11.90;99.90
2621;DHT22;1320;48.128;11.592;2023-11-19T07:06:38;12.00;99.90
2621;DHT22;1320;48.128;11.592;2023-11-19T07:09:06;12.00;99.90
2621;DHT22;1320;48.128;11.592;2023-11-19T07:11:39;12.00;99.90
2621;DHT22;1320;48.128;11.592;2023-11-19T07:14:06;12.00;99.90
2621;DHT22;1320;48.128;11.592;2023-11-19T07:21:33;12.10;99.90
2621;DHT22;1320;48.128;11.592;2023-11-19T07:36:11;12.20;99.90
2621;DHT22;1320;48.128;11.592;2023-11-19T07:38:37;12.30;99.90
2621;DHT22;1320;48.128;11.592;2023-11-19T07:43:30;12.40;99.90
2621;DHT22;1320;48.128;11.592;2023-11-19T07:45:56;12.40;99.90
2621;DHT22;1320;48.128;11.592;2023-11-19T07:48:24;12.40;99.90
2621;DHT22;1320;48.128;11.592;2023-11-19T07:50:51;12.50;99.90
2621;DHT22;1320;48.128;11.592;2023-11-19T07:53:19;12.50;99.90
2621;DHT22;1320;48.128;11.592;2023-11-19T07:55:45;12.50;99.90
2621;DHT22;1320;48.128;11.592;2023-11-19T07:58:11;12.50;99.90
2621;DHT22;1320;48.128;11.592;2023-11-19T08:00:38;12.50;99.90
2621;DHT22;1320;48.128;11.592;2023-11-19T08:03:04;12.60;99.90
2621;DHT22;1320;48.128;11.592;2023-11-19T08:05:30;12.60;99.90
2621;DHT22;1320;48.128;11.592;2023-11-19T08:07:56;12.60;99.90
2621;DHT22;1320;48.128;11.592;2023-11-19T08:10:22;12.60;99.90
2621;DHT22;1320;48.128;11.592;2023-11-19T08:12:48;12.60;99.90
2621;DHT22;1320;48.128;11.592;2023-11-19T08:15:14;12.60;99.90
2621;DHT22;1320;48.128;11.592;2023-11-19T08:17:41;12.60;99.90
2621;DHT22;1320;48.128;11.592;2023-11-19T08:20:08;12.60;99.90
2621;DHT22;1320;48.128;11.592;2023-11-19T08:22:37;12.70;99.90
2621;DHT22;1320;48.128;11.592;2023-11-19T08:25:06;12.70;99.90
2621;DHT22;1320;48.128;11.592;2023-11-19T08:27:32;12.80;99.90
2621;DHT22;1320;48.128;11.592;2023-11-19T08:29:58;12.80;99.90
2621;DHT22;1320;48.128;11.592;2023-11-19T08:32:27;12.90;99.90
2621;DHT22;1320;48.128;11.592;2023-11-19T08:34:53;12.90;99.90
2621;DHT22;1320;48.128;11.592;2023-11-19T08:37:19;12.80;99.90
2621;DHT22;1320;48.128;11.592;2023-11-19T08:39:50;12.80;99.90
2621;DHT22;1320;48.128;11.592;2023-11-19T08:42:16;12.90;99.90
2621;DHT22;1320;48.128;11.592;2023-11-19T08:44:42;12.90;99.90
2621;DHT22;1320;48.128;11.592;2023-11-19T08:47:09;12.90;99.90
2621;DHT22;1320;48.128;11.592;2023-11-19T08:49:36;13.00;99.90
2621;DHT22;1320;48.128;11.592;2023-11-19T08:52:02;13.00;99.90
2621;DHT22;1320;48.128;11.592;2023-11-19T08:54:27;13.10;99.90
2621;DHT22;1320;48.128;11.592;2023-11-19T09:01:45;13.20;99.90
2621;DHT22;1320;48.128;11.592;2023-11-19T09:04:11;13.30;99.90
2621;DHT22;1320;48.128;11.592;2023-11-19T09:06:36;13.30;99.90
2621;DHT22;1320;48.128;11.592;2023-11-19T09:09:02;13.30;99.90
2621;DHT22;1320;48.128;11.592;2023-11-19T09:11:30;13.40;99.90
2621;DHT22;1320;48.128;11.592;2023-11-19T09:13:56;13.40;99.90
2621;DHT22;1320;48.128;11.592;2023-11-19T09:16:22;13.40;99.90
2621;DHT22;1320;48.128;11.592;2023-11-19T09:18:48;13.40;99.90
2621;DHT22;1320;48.128;11.592;2023-11-19T09:21:13;13.40;99.90
2621;DHT22;1320;48.128;11.592;2023-11-19T09:23:39;13.40;99.90
2621;DHT22;1320;48.128;11.592;2023-11-19T09:26:06;13.40;99.90
2621;DHT22;1320;48.128;11.592;2023-11-19T09:28:33;13.40;99.90
2621;DHT22;1320;48.128;11.592;2023-11-19T09:30:59;13.40;99.90
2621;DHT22;1320;48.128;11.592;2023-11-19T09:33:24;13.40;99.90
2621;DHT22;1320;48.128;11.592;2023-11-19T09:35:50;13.40;99.90
2621;DHT22;1320;48.128;11.592;2023-11-19T09:38:16;13.40;99.90
2621;DHT22;1320;48.128;11.592;2023-11-19T09:40:42;13.50;99.90
2621;DHT22;1320;48.128;11.592;2023-11-19T09:43:08;13.60;99.90
2621;DHT22;1320;48.128;11.592;2023-11-19T09:45:50;13.60;99.90
2621;DHT22;1320;48.128;11.592;2023-11-19T09:48:19;13.60;99.90
2621;DHT22;1320;48.128;11.592;2023-11-19T09:50:48;13.60;99.90
2621;DHT22;1320;48.128;11.592;2023-11-19T09:53:15;13.60;99.90
2621;DHT22;1320;48.128;11.592;2023-11-19T09:55:41;13.60;99.90
2621;DHT22;1320;48.128;11.592;2023-11-19T09:58:07;13.60;99.90
2621;DHT22;1320;48.128;11.592;2023-11-19T10:00:33;13.70;99.90
2621;DHT22;1320;48.128;11.592;2023-11-19T10:03:00;13.70;99.90
2621;DHT22;1320;48.128;11.592;2023-11-19T10:05:25;13.80;99.90
2621;DHT22;1320;48.128;11.592;2023-11-19T10:07:52;13.90;99.90
2621;DHT22;1320;48.128;11.592;2023-11-19T10:10:17;13.90;99.90
2621;DHT22;1320;48.128;11.592;2023-11-19T10:12:47;14.00;99.90
2621;DHT22;1320;48.128;11.592;2023-11-19T10:15:36;14.10;99.90
2621;DHT22;1320;48.128;11.592;2023-11-19T10:18:02;14.20;99.90
2621;DHT22;1320;48.128;11.592;2023-11-19T10:20:27;14.30;99.90
2621;DHT22;1320;48.128;11.592;2023-11-19T10:22:54;14.40;99.90
2621;DHT22;1320;48.128;11.592;2023-11-19T10:25:28;14.40;99.90
2621;DHT22;1320;48.128;11.592;2023-11-19T10:27:55;14.40;99.90
2621;DHT22;1320;48.128;11.592;2023-11-19T10:30:22;14.50;99.90
2621;DHT22;1320;48.128;11.592;2023-11-19T10:33:04;14.60;99.90
2621;DHT22;1320;48.128;11.592;2023-11-19T10:35:32;14.70;99.90
2621;DHT22;1320;48.128;11.592;2023-11-19T10:38:14;14.70;99.90
2621;DHT22;1320;48.128;11.592;2023-11-19T10:40:43;14.80;99.90
2621;DHT22;1320;48.128;11.592;2023-11-19T10:43:09;14.90;99.90
2621;DHT22;1320;48.128;11.592;2023-11-19T10:50:37;15.30;99.90
2621;DHT22;1320;48.128;11.592;2023-11-19T10:53:03;15.40;99.90
2621;DHT22;1320;48.128;11.592;2023-11-19T10:55:31;15.60;99.90
2621;DHT22;1320;48.128;11.592;2023-11-19T10:58:00;15.70;99.90
2621;DHT22;1320;48.128;11.592;2023-11-19T11:01:11;15.80;99.90
2621;DHT22;1320;48.128;11.592;2023-11-19T11:03:21;15.80;99.90
2621;DHT22;1320;48.128;11.592;2023-11-19T11:05:51;15.80;99.90
2621;DHT22;1320;48.128;11.592;2023-11-19T11:08:18;15.70;99.90
2621;DHT22;1320;48.128;11.592;2023-11-19T11:11:03;15.60;99.90
2621;DHT22;1320;48.128;11.592;2023-11-19T11:13:31;15.50;99.90
2621;DHT22;1320;48.128;11.592;2023-11-19T11:15:58;15.50;99.90
2621;DHT22;1320;48.128;11.592;2023-11-19T11:18:24;15.50;99.90
2621;DHT22;1320;48.128;11.592;2023-11-19T11:20:54;15.50;99.90
2621;DHT22;1320;48.128;11.592;2023-11-19T11:26:27;15.30;99.90
2621;DHT22;1320;48.128;11.592;2023-11-19T11:37:26;15.50;99.90
2621;DHT22;1320;48.128;11.592;2023-11-19T11:39:53;15.50;99.90
2621;DHT22;1320;48.128;11.592;2023-11-19T11:45:20;15.50;99.90
2621;DHT22;1320;48.128;11.592;2023-11-19T12:05:27;16.40;99.90
2621;DHT22;1320;48.128;11.592;2023-11-19T12:08:03;16.50;99.90
2621;DHT22;1320;48.128;11.592;2023-11-19T12:10:31;16.60;99.90
2621;DHT22;1320;48.128;11.592;2023-11-19T12:13:01;16.70;99.90
2621;DHT22;1320;48.128;11.592;2023-11-19T12:15:27;16.90;99.90
2621;DHT22;1320;48.128;11.592;2023-11-19T12:17:54;17.00;99.90
2621;DHT22;1320;48.128;11.592;2023-11-19T12:20:21;17.10;99.90
2621;DHT22;1320;48.128;11.592;2023-11-19T12:22:48;17.10;99.90
2621;DHT22;1320;48.128;11.592;2023-11-19T12:25:15;17.10;99.90
2621;DHT22;1320;48.128;11.592;2023-11-19T12:27:50;17.10;99.90
2621;DHT22;1320;48.128;11.592;2023-11-19T12:30:23;17.00;99.90
2621;DHT22;1320;48.128;11.592;2023-11-19T12:32:50;17.10;99.90
2621;DHT22;1320;48.128;11.592;2023-11-19T12:35:16;17.30;99.90
2621;DHT22;1320;48.128;11.592;2023-11-19T12:37:46;17.50;99.90
2621;DHT22;1320;48.128;11.592;2023-11-19T12:40:15;17.40;99.90
2621;DHT22;1320;48.128;11.592;2023-11-19T12:42:45;17.30;99.90
2621;DHT22;1320;48.128;11.592;2023-11-19T12:45:12;17.10;99.90
2621;DHT22;1320;48.128;11.592;2023-11-19T12:47:40;17.10;99.90
2621;DHT22;1320;48.128;11.592;2023-11-19T12:50:07;17.20;99.90
2621;DHT22;1320;48.128;11.592;2023-11-19T12:52:37;17.40;99.90
2621;DHT22;1320;48.128;11.592;2023-11-19T12:55:26;17.50;99.90
2621;DHT22;1320;48.128;11.592;2023-11-19T12:57:52;17.50;99.90
2621;DHT22;1320;48.128;11.592;2023-11-19T13:00:22;17.40;99.90
2621;DHT22;1320;48.128;11.592;2023-11-19T13:02:49;17.50;99.90
2621;DHT22;1320;48.128;11.592;2023-11-19T13:08:03;17.80;99.90
2621;DHT22;1320;48.128;11.592;2023-11-19T13:10:33;17.90;99.90
2621;DHT22;1320;48.128;11.592;2023-11-19T13:13:11;17.90;99.90
2621;DHT22;1320;48.128;11.592;2023-11-19T13:15:37;17.80;99.90
2621;DHT22;1320;48.128;11.592;2023-11-19T13:18:03;17.70;99.90
2621;DHT22;1320;48.128;11.592;2023-11-19T13:20:29;17.50;99.90
2621;DHT22;1320;48.128;11.592;2023-11-19T13:23:02;17.20;99.90
2621;DHT22;1320;48.128;11.592;2023-11-19T13:25:28;17.10;99.90
2621;DHT22;1320;48.128;11.592;2023-11-19T13:27:54;16.90;99.90
2621;DHT22;1320;48.128;11.592;2023-11-19T13:30:21;16.70;99.90
2621;DHT22;1320;48.128;11.592;2023-11-19T13:32:48;16.70;99.90
2621;DHT22;1320;48.128;11.592;2023-11-19T13:35:13;16.70;99.90
2621;DHT22;1320;48.128;11.592;2023-11-19T13:37:39;16.60;99.90
2621;DHT22;1320;48.128;11.592;2023-11-19T13:40:07;16.50;99.90
2621;DHT22;1320;48.128;11.592;2023-11-19T13:42:33;16.50;99.90
2621;DHT22;1320;48.128;11.592;2023-11-19T13:44:58;16.40;99.90
2621;DHT22;1320;48.128;11.592;2023-11-19T13:47:24;16.30;99.90
2621;DHT22;1320;48.128;11.592;2023-11-19T13:49:50;16.20;99.90
2621;DHT22;1320;48.128;11.592;2023-11-19T13:52:15;16.00;99.90
2621;DHT22;1320;48.128;11.592;2023-11-19T13:54:41;15.90;99.90
2621;DHT22;1320;48.128;11.592;2023-11-19T13:57:07;15.70;99.90
2621;DHT22;1320;48.128;11.592;2023-11-19T13:59:32;15.60;99.90
2621;DHT22;1320;48.128;11.592;2023-11-19T14:01:58;15.50;99.90
2621;DHT22;1320;48.128;11.592;2023-11-19T14:04:24;15.60;99.90
2621;DHT22;1320;48.128;11.592;2023-11-19T14:06:50;15.60;99.90
2621;DHT22;1320;48.128;11.592;2023-11-19T14:09:16;15.60;99.90
2621;DHT22;1320;48.128;11.592;2023-11-19T14:11:43;15.50;99.90
2621;DHT22;1320;48.128;11.592;2023-11-19T14:14:09;15.50;99.90
2621;DHT22;1320;48.128;11.592;2023-11-19T14:16:34;15.50;99.90
2621;DHT22;1320;48.128;11.592;2023-11-19T14:19:00;15.50;99.90
2621;DHT22;1320;48.128;11.592;2023-11-19T14:21:26;15.50;99.90
2621;DHT22;1320;48.128;11.592;2023-11-19T14:23:52;15.50;99.90
2621;DHT22;1320;48.128;11.592;2023-11-19T14:26:18;15.50;99.90
2621;DHT22;1320;48.128;11.592;2023-11-19T14:28:44;15.40;99.90
2621;DHT22;1320;48.128;11.592;2023-11-19T14:31:09;15.40;99.90
2621;DHT22;1320;48.128;11.592;2023-11-19T14:33:35;15.40;99.90
2621;DHT22;1320;48.128;11.592;2023-11-19T14:36:07;15.40;99.90
2621;DHT22;1320;48.128;11.592;2023-11-19T14:38:33;15.40;99.90
2621;DHT22;1320;48.128;11.592;2023-11-19T14:40:59;15.40;99.90
2621;DHT22;1320;48.128;11.592;2023-11-19T14:43:25;15.30;99.90
2621;DHT22;1320;48.128;11.592;2023-11-19T14:45:51;15.30;99.90
2621;DHT22;1320;48.128;11.592;2023-11-19T14:48:17;15.40;99.90
2621;DHT22;1320;48.128;11.592;2023-11-19T14:50:43;15.40;99.90
2621;DHT22;1320;48.128;11.592;2023-11-19T14:53:10;15.40;99.90
2621;DHT22;1320;48.128;11.592;2023-11-19T14:55:36;15.40;99.90
2621;DHT22;1320;48.128;11.592;2023-11-19T14:58:01;15.30;99.90
2621;DHT22;1320;48.128;11.592;2023-11-19T15:00:27;15.30;99.90
2621;DHT22;1320;48.128;11.592;2023-11-19T15:02:52;15.20;99.90
2621;DHT22;1320;48.128;11.592;2023-11-19T15:05:24;15.20;99.90
2621;DHT22;1320;48.128;11.592;2023-11-19T15:07:49;15.20;99.90
2621;DHT22;1320;48.128;11.592;2023-11-19T15:10:15;15.10;99.90
2621;DHT22;1320;48.128;11.592;2023-11-19T15:12:41;15.10;99.90
2621;DHT22;1320;48.128;11.592;2023-11-19T15:15:08;15.00;99.90
2621;DHT22;1320;48.128;11.592;2023-11-19T15:17:35;15.00;99.90
2621;DHT22;1320;48.128;11.592;2023-11-19T15:20:02;14.90;99.90
2621;DHT22;1320;48.128;11.592;2023-11-19T15:22:30;14.80;99.90
2621;DHT22;1320;48.128;11.592;2023-11-19T15:24:56;14.80;99.90
2621;DHT22;1320;48.128;11.592;2023-11-19T15:27:22;14.80;99.90
2621;DHT22;1320;48.128;11.592;2023-11-19T15:29:48;14.80;99.90
2621;DHT22;1320;48.128;11.592;2023-11-19T15:32:14;14.70;99.90
2621;DHT22;1320;48.128;11.592;2023-11-19T15:34:39;14.70;99.90
2621;DHT22;1320;48.128;11.592;2023-11-19T15:37:09;14.70;99.90
2621;DHT22;1320;48.128;11.592;2023-11-19T15:39:38;14.70;99.90
2621;DHT22;1320;48.128;11.592;2023-11-19T15:42:04;14.60;99.90
2621;DHT22;1320;48.128;11.592;2023-11-19T15:44:29;14.50;99.90
2621;DHT22;1320;48.128;11.592;2023-11-19T15:46:55;14.50;99.90
2621;DHT22;1320;48.128;11.592;2023-11-19T15:49:21;14.50;99.90
2621;DHT22;1320;48.128;11.592;2023-11-19T15:51:46;14.50;99.90
2621;DHT22;1320;48.128;11.592;2023-11-19T15:54:12;14.40;99.90
2621;DHT22;1320;48.128;11.592;2023-11-19T15:56:38;14.40;99.90
2621;DHT22;1320;48.128;11.592;2023-11-19T15:59:03;14.30;99.90
2621;DHT22;1320;48.128;11.592;2023-11-19T16:01:33;14.30;99.90
2621;DHT22;1320;48.128;11.592;2023-11-19T16:03:59;14.20;99.90
2621;DHT22;1320;48.128;11.592;2023-11-19T16:06:24;14.20;99.90
2621;DHT22;1320;48.128;11.592;2023-11-19T16:08:50;14.30;99.90
2621;DHT22;1320;48.128;11.592;2023-11-19T16:11:16;14.30;99.90
2621;DHT22;1320;48.128;11.592;2023-11-19T16:13:42;14.30;99.90
2621;DHT22;1320;48.128;11.592;2023-11-19T16:16:08;14.30;99.90
2621;DHT22;1320;48.128;11.592;2023-11-19T16:18:34;14.30;99.90
2621;DHT22;1320;48.128;11.592;2023-11-19T16:21:00;14.30;99.90
2621;DHT22;1320;48.128;11.592;2023-11-19T16:23:26;14.30;99.90
2621;DHT22;1320;48.128;11.592;2023-11-19T16:25:53;14.30;99.90
2621;DHT22;1320;48.128;11.592;2023-11-19T16:28:19;14.30;99.90
2621;DHT22;1320;48.128;11.592;2023-11-19T16:30:45;14.30;99.90
2621;DHT22;1320;48.128;11.592;2023-11-19T16:33:11;14.20;99.90
2621;DHT22;1320;48.128;11.592;2023-11-19T16:35:36;14.20;99.90
2621;DHT22;1320;48.128;11.592;2023-11-19T16:38:02;14.10;99.90
2621;DHT22;1320;48.128;11.592;2023-11-19T16:40:28;14.10;99.90
2621;DHT22;1320;48.128;11.592;2023-11-19T16:42:54;14.10;99.90
2621;DHT22;1320;48.128;11.592;2023-11-19T16:45:20;14.10;99.90
2621;DHT22;1320;48.128;11.592;2023-11-19T16:47:47;14.00;99.90
2621;DHT22;1320;48.128;11.592;2023-11-19T16:55:08;13.90;99.90
2621;DHT22;1320;48.128;11.592;2023-11-19T16:57:39;14.00;99.90
2621;DHT22;1320;48.128;11.592;2023-11-19T17:00:06;13.90;99.90
2621;DHT22;1320;48.128;11.592;2023-11-19T17:02:32;13.80;99.90
2621;DHT22;1320;48.128;11.592;2023-11-19T17:04:57;13.80;99.90